68MN weather

Stanton Hill Aerodrome
Atwater, Minnesota, United States

Public forecast

Using degrees Fahrenheit for public forecast. Weather courtesy of forecast.io.

Closest aviation weather report (METAR) to Stanton Hill Aerodrome

Closest report is Litchfield Municipal Airport, 14.3 nm (26.4 km) ENE. Retrieved 2020/08/08 23:35 UTC (13 minutes ago):

KLJF 082335Z AUTO 26004KT 10SM CLR 23/19 A2993 RMK AO2

Closest aviation forecast (TAF) to Stanton Hill Aerodrome

Closest forecast is Redwood Falls Municipal Airport, 31.9 nm (59.1 km) SSW. Retrieved 2020/08/08 18:22 UTC (5 hours ago):

TAF KRWF 081720Z 0818/0918 17009KT P6SM BKN020 FM082000 18008KT P6SM BKN035 TEMPO 0821/0824 4SM -TSRA BKN025CB FM090300 15006KT P6SM SCT100 PROB30 0905/0909 5SM -TSRA BKN025 OVC050CB FM090900 17005KT P6SM BKN015 FM091500 19008KT P6SM BKN030